Base ULM d'Aghione Casone

FR-0383 · Upper Corsica, Corsica, France

METAR history FR-0383 · Base ULM d'Aghione Casone

Below you see METARs of the last few days. Select a year to browse through older METARs, from the year 2007 onwards.

July 16, 2024

Time Code Weather Temp. Visibility Ceiling Wind METAR/SPECI
02:30
V
24 °C 10 km+ - 280° 280° 4 kt METAR LFKS 160030Z AUTO 28004KT 250V310 CAVOK 24/19 Q1012
02:00
V
24 °C 10 km+ - 290° 290° 3 kt METAR LFKS 160000Z AUTO 29003KT CAVOK 24/19 Q1012
01:30
V
25 °C 10 km+ - 280° 280° 3 kt METAR LFKS 152330Z AUTO 28003KT 250V310 CAVOK 25/19 Q1013
01:00
V
25 °C 10 km+ - 280° 280° 4 kt METAR LFKS 152300Z AUTO 28004KT 250V320 CAVOK 25/20 Q1013
00:30
V
25 °C 10 km+ - 280° 280° 4 kt METAR LFKS 152230Z AUTO 28004KT CAVOK 25/20 Q1013
00:00
V
26 °C 10 km+ - Var Var 3 kt METAR LFKS 152200Z AUTO VRB03KT CAVOK 26/21 Q1013

July 15, 2024

Time Code Weather Temp. Visibility Ceiling Wind METAR/SPECI
23:30
V
26 °C 10 km+ - Var Var 2 kt METAR LFKS 152130Z AUTO VRB02KT CAVOK 26/21 Q1013
23:00
V
26 °C 10 km+ - Var Var 2 kt METAR LFKS 152100Z AUTO VRB02KT CAVOK 26/21 Q1013
22:30
V
26 °C 10 km+ - Var Var 3 kt METAR LFKS 152030Z AUTO VRB03KT CAVOK 26/22 Q1013
22:00
V
27 °C 10 km+ - Var Var 3 kt METAR LFKS 152000Z AUTO VRB03KT CAVOK 27/23 Q1013
21:30
V
27 °C 10 km+ - 180° 180° 3 kt METAR LFKS 151930Z AUTO 18003KT CAVOK 27/23 Q1013
21:00
V
27 °C 10 km+ - 170° 170° 4 kt METAR LFKS 151900Z AUTO 17004KT CAVOK 27/23 Q1012
20:30
V
28 °C 10 km+ - 170° 170° 4 kt METAR LFKS 151830Z AUTO 17004KT CAVOK 28/23 Q1012
20:00
V
28 °C 10 km+ - 150° 150° 4 kt METAR LFKS 151800Z AUTO 15004KT CAVOK 28/23 Q1012
19:30
V
29 °C 10 km+ - 140° 140° 5 kt METAR LFKS 151730Z AUTO 14005KT 110V170 CAVOK 29/23 Q1012
19:00
V
29 °C 10 km+ - 130° 130° 5 kt METAR LFKS 151700Z AUTO 13005KT 090V170 CAVOK 29/23 Q1012
18:30
V
30 °C 10 km+ - 110° 110° 4 kt METAR LFKS 151630Z AUTO 11004KT 070V180 CAVOK 30/22 Q1012
18:00
V
30 °C 10 km+ - 100° 100° 5 kt METAR LFKS 151600Z AUTO 10005KT 060V150 CAVOK 30/23 Q1012
17:30
V
30 °C 10 km+ - 110° 110° 5 kt METAR LFKS 151530Z AUTO 11005KT 060V160 CAVOK 30/23 Q1012
17:00
V
30 °C 10 km+ - 110° 110° 5 kt METAR LFKS 151500Z AUTO 11005KT 060V160 CAVOK 30/23 Q1013
16:30
V
30 °C 10 km+ - 090° 090° 5 kt METAR LFKS 151430Z AUTO 09005KT 050V130 CAVOK 30/23 Q1013
16:00
V
30 °C 10 km+ - 110° 110° 7 kt METAR LFKS 151400Z AUTO 11007KT 070V140 CAVOK 30/23 Q1013
15:30
V
30 °C 10 km+ - 110° 110° 6 kt METAR LFKS 151330Z AUTO 11006KT 060V160 CAVOK 30/24 Q1013
15:00
V
30 °C 10 km+ - 100° 100° 7 kt METAR LFKS 151300Z AUTO 10007KT 060V140 CAVOK 30/24 Q1013
14:30
V
30 °C 10 km+ - 110° 110° 7 kt METAR LFKS 151230Z AUTO 11007KT 060V170 CAVOK 30/23 Q1013
14:00
V
30 °C 10 km+ - 090° 090° 6 kt METAR LFKS 151200Z AUTO 09006KT 060V140 CAVOK 30/23 Q1013
13:30
V
30 °C 10 km+ - 110° 110° 6 kt METAR LFKS 151130Z AUTO 11006KT 070V150 CAVOK 30/23 Q1013
13:00
V
30 °C 10 km+ - 100° 100° 7 kt METAR LFKS 151100Z AUTO 10007KT 060V170 CAVOK 30/24 Q1014
12:30
V
30 °C 10 km+ - 100° 100° 7 kt METAR LFKS 151030Z AUTO 10007KT 060V140 CAVOK 30/23 Q1014
12:00
V
29 °C 10 km+ - 110° 110° 6 kt METAR LFKS 151000Z AUTO 11006KT 050V170 CAVOK 29/23 Q1013
11:30
V
29 °C 10 km+ - 110° 110° 7 kt METAR LFKS 150930Z AUTO 11007KT 070V150 CAVOK 29/23 Q1013
11:00
V
29 °C 10 km+ - 110° 110° 6 kt METAR LFKS 150900Z AUTO 11006KT 050V130 CAVOK 29/23 Q1013
10:30
V
29 °C 10 km+ - 090° 090° 7 kt METAR LFKS 150830Z AUTO 09007KT CAVOK 29/22 Q1013
10:00
V
29 °C 10 km+ - 100° 100° 7 kt METAR LFKS 150800Z AUTO 10007KT 060V120 CAVOK 29/22 Q1013
09:30
V
29 °C 10 km+ - 050° 050° 4 kt METAR LFKS 150730Z AUTO 05004KT 360V090 CAVOK 29/22 Q1013
09:00
V
28 °C 10 km+ - 040° 040° 4 kt METAR LFKS 150700Z AUTO 04004KT 360V080 CAVOK 28/22 Q1013
08:30
V
28 °C 10 km+ - 020° 020° 4 kt METAR LFKS 150630Z AUTO 02004KT 350V060 CAVOK 28/22 Q1014
08:00
V
27 °C 10 km+ - Var Var 3 kt METAR LFKS 150600Z AUTO VRB03KT 9999 FEW014 27/22 Q1013
07:30
M
25 °C 10 km+ 1,800 ft 270° 270° 4 kt METAR LFKS 150530Z AUTO 27004KT 240V300 9999 FEW012 BKN018 25/18 Q1013
07:00
M
24 °C 10 km+ 1,300 ft 270° 270° 4 kt METAR LFKS 150500Z AUTO 27004KT 240V300 9999 BKN013 24/17 Q1013
06:30
M
24 °C 10 km+ 1,100 ft 270° 270° 5 kt METAR LFKS 150430Z AUTO 27005KT 9999 OVC011 24/17 Q1013
06:00
M
23 °C 10 km+ 1,100 ft 270° 270° 5 kt METAR LFKS 150400Z AUTO 27005KT 9999 BKN011 23/17 Q1013
05:30
V
23 °C 10 km+ - 270° 270° 5 kt METAR LFKS 150330Z AUTO 27005KT CAVOK 23/16 Q1013
05:00
V
23 °C 10 km+ - 260° 260° 4 kt METAR LFKS 150300Z AUTO 26004KT CAVOK 23/17 Q1013
04:30
V
24 °C 10 km+ - 280° 280° 5 kt METAR LFKS 150230Z AUTO 28005KT CAVOK 24/17 Q1012
04:00
V
24 °C 10 km+ - 270° 270° 5 kt METAR LFKS 150200Z AUTO 27005KT CAVOK 24/17 Q1012
03:30
V
24 °C 10 km+ - 280° 280° 4 kt METAR LFKS 150130Z AUTO 28004KT CAVOK 24/18 Q1012
03:00
V
24 °C 10 km+ - 280° 280° 5 kt METAR LFKS 150100Z AUTO 28005KT CAVOK 24/17 Q1012
02:30
V
24 °C 10 km+ - 270° 270° 4 kt METAR LFKS 150030Z AUTO 27004KT 250V310 CAVOK 24/18 Q1013
02:00
V
24 °C 10 km+ - 310° 310° 3 kt METAR LFKS 150000Z AUTO 31003KT 270V330 CAVOK 24/19 Q1013
01:30
V
25 °C 10 km+ - 280° 280° 4 kt METAR LFKS 142330Z AUTO 28004KT 250V310 CAVOK 25/18 Q1013
01:00
V
25 °C 10 km+ - Var Var 2 kt METAR LFKS 142300Z AUTO VRB02KT CAVOK 25/19 Q1013
00:30
V
26 °C 10 km+ - Var Var 3 kt METAR LFKS 142230Z AUTO VRB03KT CAVOK 26/20 Q1013
00:00
V
26 °C 10 km+ - Var Var 2 kt METAR LFKS 142200Z AUTO VRB02KT CAVOK 26/20 Q1013

July 14, 2024

Time Code Weather Temp. Visibility Ceiling Wind METAR/SPECI
23:30
V
25 °C 10 km+ - Var Var 2 kt METAR LFKS 142130Z AUTO VRB02KT CAVOK 25/20 Q1013
23:00
V
26 °C 10 km+ - Var Var 3 kt METAR LFKS 142100Z AUTO VRB03KT CAVOK 26/20 Q1013
22:30
V
26 °C 10 km+ - 260° 260° 4 kt METAR LFKS 142030Z AUTO 26004KT 240V300 CAVOK 26/21 Q1013
22:00
V
26 °C 10 km+ - Var Var 2 kt METAR LFKS 142000Z AUTO VRB02KT CAVOK 26/22 Q1013
21:30
V
26 °C 10 km+ - 180° 180° 4 kt METAR LFKS 141930Z AUTO 18004KT CAVOK 26/23 Q1013
21:00
V
26 °C 10 km+ - 180° 180° 4 kt METAR LFKS 141900Z AUTO 18004KT CAVOK 26/23 Q1013
20:30
V
27 °C 10 km+ - 170° 170° 4 kt METAR LFKS 141830Z AUTO 17004KT CAVOK 27/23 Q1012
20:00
V
28 °C 10 km+ - 170° 170° 6 kt METAR LFKS 141800Z AUTO 17006KT CAVOK 28/24 Q1012
19:30
V
28 °C 10 km+ - 170° 170° 6 kt METAR LFKS 141730Z AUTO 17006KT CAVOK 28/23 Q1012
19:00
V
29 °C 10 km+ - 160° 160° 7 kt METAR LFKS 141700Z AUTO 16007KT CAVOK 29/23 Q1012
18:30
V
29 °C 10 km+ - 150° 150° 7 kt METAR LFKS 141630Z AUTO 15007KT CAVOK 29/22 Q1012
18:00
V
29 °C 10 km+ - 160° 160° 7 kt METAR LFKS 141600Z AUTO 16007KT 140V200 CAVOK 29/22 Q1012
17:30
V
30 °C 10 km+ - 150° 150° 7 kt METAR LFKS 141530Z AUTO 15007KT 110V180 CAVOK 30/23 Q1012
17:00
V
30 °C 10 km+ - 150° 150° 6 kt METAR LFKS 141500Z AUTO 15006KT 100V190 CAVOK 30/22 Q1012
16:30
V
30 °C 10 km+ - 120° 120° 6 kt METAR LFKS 141430Z AUTO 12006KT 080V180 CAVOK 30/23 Q1012
16:00
V
31 °C 10 km+ - 120° 120° 7 kt METAR LFKS 141400Z AUTO 12007KT 060V170 CAVOK 31/23 Q1012
15:30
V
30 °C 10 km+ - 140° 140° 7 kt METAR LFKS 141330Z AUTO 14007KT 080V200 CAVOK 30/22 Q1012
15:00
V
30 °C 10 km+ - 130° 130° 8 kt METAR LFKS 141300Z AUTO 13008KT 080V160 CAVOK 30/23 Q1012
14:30
V
30 °C 10 km+ - 120° 120° 8 kt METAR LFKS 141230Z AUTO 12008KT 090V160 CAVOK 30/22 Q1012
14:00
V
30 °C 10 km+ - 120° 120° 7 kt METAR LFKS 141200Z AUTO 12007KT 070V160 CAVOK 30/22 Q1012
13:30
V
30 °C 10 km+ - 110° 110° 8 kt METAR LFKS 141130Z AUTO 11008KT 070V140 CAVOK 30/23 Q1012
13:00
V
30 °C 10 km+ - 120° 120° 7 kt METAR LFKS 141100Z AUTO 12007KT 070V160 CAVOK 30/23 Q1012
12:30
V
29 °C 10 km+ - 110° 110° 7 kt METAR LFKS 141030Z AUTO 11007KT 080V150 CAVOK 29/23 Q1012
12:00
V
30 °C 10 km+ - 100° 100° 8 kt METAR LFKS 141000Z AUTO 10008KT CAVOK 30/23 Q1012
11:30
V
29 °C 10 km+ - 120° 120° 7 kt METAR LFKS 140930Z AUTO 12007KT 080V150 CAVOK 29/23 Q1012
11:00
V
30 °C 10 km+ - 100° 100° 7 kt METAR LFKS 140900Z AUTO 10007KT 070V160 CAVOK 30/23 Q1012
10:30
V
29 °C 10 km+ - 090° 090° 7 kt METAR LFKS 140830Z AUTO 09007KT 060V130 CAVOK 29/23 Q1012
10:00
V
29 °C 10 km+ - 090° 090° 6 kt METAR LFKS 140800Z AUTO 09006KT 060V120 CAVOK 29/23 Q1012
09:30
V
29 °C 10 km+ - 090° 090° 5 kt METAR LFKS 140730Z AUTO 09005KT 040V130 CAVOK 29/23 Q1012
09:00
V
29 °C 10 km+ - 030° 030° 4 kt METAR LFKS 140700Z AUTO 03004KT 340V120 CAVOK 29/23 Q1012
08:30
V
28 °C 10 km+ - 010° 010° 4 kt METAR LFKS 140630Z AUTO 01004KT 320V040 9999 FEW012 28/20 Q1012
08:00
V
27 °C 10 km+ - Var Var 3 kt METAR LFKS 140600Z AUTO VRB03KT CAVOK 27/19 Q1012
07:30
V
26 °C 10 km+ - Var Var 2 kt METAR LFKS 140530Z AUTO VRB02KT CAVOK 26/19 Q1012
07:00
V
24 °C 10 km+ - Var Var 3 kt METAR LFKS 140500Z AUTO VRB03KT CAVOK 24/18 Q1011
06:30
V
24 °C 10 km+ - 310° 310° 4 kt METAR LFKS 140430Z AUTO 31004KT 260V350 CAVOK 24/17 Q1011
06:00
V
24 °C 10 km+ - 260° 260° 5 kt METAR LFKS 140400Z AUTO 26005KT 230V290 CAVOK 24/17 Q1011
05:30
V
24 °C 10 km+ - 270° 270° 5 kt METAR LFKS 140330Z AUTO 27005KT 240V300 CAVOK 24/17 Q1011
05:00
V
24 °C 10 km+ - 270° 270° 4 kt METAR LFKS 140300Z AUTO 27004KT 250V310 CAVOK 24/18 Q1011
04:30
V
24 °C 10 km+ - Var Var 3 kt METAR LFKS 140230Z AUTO VRB03KT CAVOK 24/18 Q1011
04:00
V
24 °C 10 km+ - 260° 260° 3 kt METAR LFKS 140200Z AUTO 26003KT 240V300 CAVOK 24/18 Q1011
03:30
V
24 °C 10 km+ - 270° 270° 5 kt METAR LFKS 140130Z AUTO 27005KT CAVOK 24/18 Q1011
03:00
V
24 °C 10 km+ - 270° 270° 4 kt METAR LFKS 140100Z AUTO 27004KT CAVOK 24/18 Q1011
02:30
V
24 °C 10 km+ - 290° 290° 4 kt METAR LFKS 140030Z AUTO 29004KT 260V320 CAVOK 24/18 Q1011
02:00
V
24 °C 10 km+ - 280° 280° 5 kt METAR LFKS 140000Z AUTO 28005KT 250V310 CAVOK 24/18 Q1011
01:30
V
25 °C 10 km+ - 260° 260° 4 kt METAR LFKS 132330Z AUTO 26004KT 230V300 CAVOK 25/18 Q1011
01:00
V
25 °C 10 km+ - 260° 260° 5 kt METAR LFKS 132300Z AUTO 26005KT CAVOK 25/19 Q1011
00:30
V
25 °C 10 km+ - 280° 280° 3 kt METAR LFKS 132230Z AUTO 28003KT 240V310 CAVOK 25/19 Q1011
00:00
V
26 °C 10 km+ - 260° 260° 4 kt METAR LFKS 132200Z AUTO 26004KT 230V320 CAVOK 26/19 Q1011

July 13, 2024

Time Code Weather Temp. Visibility Ceiling Wind METAR/SPECI
23:30
V
26 °C 10 km+ - 270° 270° 4 kt METAR LFKS 132130Z AUTO 27004KT 230V300 CAVOK 26/19 Q1011
23:00
V
26 °C 10 km+ - 260° 260° 5 kt METAR LFKS 132100Z AUTO 26005KT 230V300 CAVOK 26/19 Q1011
22:30
V
26 °C 10 km+ - 260° 260° 4 kt METAR LFKS 132030Z AUTO 26004KT CAVOK 26/20 Q1012
22:00
V
26 °C 10 km+ - 290° 290° 4 kt METAR LFKS 132000Z AUTO 29004KT 250V320 CAVOK 26/20 Q1011
21:30
V
27 °C 10 km+ - Var Var 2 kt METAR LFKS 131930Z AUTO VRB02KT CAVOK 27/20 Q1011
21:00
V
27 °C 10 km+ - 090° 090° 2 kt METAR LFKS 131900Z AUTO 09002KT CAVOK 27/21 Q1011
20:30
V
28 °C 10 km+ - 110° 110° 3 kt METAR LFKS 131830Z AUTO 11003KT CAVOK 28/21 Q1011
20:00
V
29 °C 10 km+ - Var Var 2 kt METAR LFKS 131800Z AUTO VRB02KT CAVOK 29/20 Q1011
19:30
V
29 °C 10 km+ - Var Var 2 kt METAR LFKS 131730Z AUTO VRB02KT CAVOK 29/21 Q1011
19:00
V
30 °C 10 km+ - Var Var 2 kt METAR LFKS 131700Z AUTO VRB02KT CAVOK 30/21 Q1010
18:30
V
30 °C 10 km+ - Var Var 3 kt METAR LFKS 131630Z AUTO VRB03KT CAVOK 30/22 Q1010
18:00
V
30 °C 10 km+ - 110° 110° 3 kt METAR LFKS 131600Z AUTO 11003KT 070V180 CAVOK 30/22 Q1011
17:30
V
30 °C 10 km+ - 120° 120° 3 kt METAR LFKS 131530Z AUTO 12003KT 050V200 CAVOK 30/22 Q1011
17:00
V
29 °C 10 km+ - 120° 120° 4 kt METAR LFKS 131500Z AUTO 12004KT 050V190 CAVOK 29/22 Q1011
16:30
V
30 °C 10 km+ - 120° 120° 6 kt METAR LFKS 131430Z AUTO 12006KT 080V170 CAVOK 30/23 Q1011
16:00
V
30 °C 10 km+ - 110° 110° 4 kt METAR LFKS 131400Z AUTO 11004KT 070V160 CAVOK 30/22 Q1011
15:30
V
30 °C 10 km+ - 110° 110° 6 kt METAR LFKS 131330Z AUTO 11006KT 070V150 CAVOK 30/23 Q1011
15:00
V
30 °C 10 km+ - 130° 130° 6 kt METAR LFKS 131300Z AUTO 13006KT 080V160 CAVOK 30/22 Q1011
14:30
V
30 °C 10 km+ - 160° 160° 7 kt METAR LFKS 131230Z AUTO 16007KT 110V200 CAVOK 30/22 Q1011
14:00
V
30 °C 10 km+ - 140° 140° 7 kt METAR LFKS 131200Z AUTO 14007KT 090V200 CAVOK 30/23 Q1011
13:30
V
30 °C 10 km+ - 130° 130° 7 kt METAR LFKS 131130Z AUTO 13007KT 090V190 CAVOK 30/22 Q1011
13:00
V
30 °C 10 km+ - 130° 130° 8 kt METAR LFKS 131100Z AUTO 13008KT 110V170 CAVOK 30/22 Q1011
12:30
V
29 °C 10 km+ - 130° 130° 8 kt METAR LFKS 131030Z AUTO 13008KT 090V180 CAVOK 29/22 Q1011
12:00
V
29 °C 10 km+ - 110° 110° 8 kt METAR LFKS 131000Z AUTO 11008KT 080V140 CAVOK 29/22 Q1011
11:30
V
29 °C 10 km+ - 110° 110° 8 kt METAR LFKS 130930Z AUTO 11008KT 080V140 CAVOK 29/22 Q1011
11:00
V
30 °C 10 km+ - 090° 090° 8 kt METAR LFKS 130900Z AUTO 09008KT CAVOK 30/22 Q1011
10:30
V
29 °C 10 km+ - 090° 090° 8 kt METAR LFKS 130830Z AUTO 09008KT 060V120 CAVOK 29/21 Q1011
10:00
V
29 °C 10 km+ - 090° 090° 6 kt METAR LFKS 130800Z AUTO 09006KT 050V130 CAVOK 29/21 Q1010
09:30
V
28 °C 10 km+ - 100° 100° 5 kt METAR LFKS 130730Z AUTO 10005KT 070V140 CAVOK 28/21 Q1010
09:00
V
29 °C 10 km+ - 040° 040° 4 kt METAR LFKS 130700Z AUTO 04004KT 340V110 CAVOK 29/21 Q1010
08:30
V
28 °C 10 km+ - 010° 010° 5 kt METAR LFKS 130630Z AUTO 01005KT 340V050 CAVOK 28/21 Q1011
08:00
V
27 °C 10 km+ - 360° 360° 4 kt METAR LFKS 130600Z AUTO 36004KT 320V040 CAVOK 27/21 Q1010
Report a change